sensor_id;sensor_type;location;lat;lon;timestamp;P1;durP1;ratioP1;P2;durP2;ratioP2
22476;SDS011;65006;51.698;-0.292;2023-02-11T00:00:16;17.13;;;7.60;;
22476;SDS011;65006;51.698;-0.292;2023-02-11T00:02:42;18.45;;;8.15;;
22476;SDS011;65006;51.698;-0.292;2023-02-11T00:05:08;15.80;;;8.25;;
22476;SDS011;65006;51.698;-0.292;2023-02-11T00:07:34;17.45;;;7.45;;
22476;SDS011;65006;51.698;-0.292;2023-02-11T00:10:00;17.98;;;8.85;;
22476;SDS011;65006;51.698;-0.292;2023-02-11T00:14:53;15.40;;;7.65;;
22476;SDS011;65006;51.698;-0.292;2023-02-11T00:17:19;18.98;;;7.68;;
22476;SDS011;65006;51.698;-0.292;2023-02-11T00:19:49;18.38;;;8.02;;
22476;SDS011;65006;51.698;-0.292;2023-02-11T00:22:15;17.08;;;7.68;;
22476;SDS011;65006;51.698;-0.292;2023-02-11T00:24:41;17.05;;;8.07;;
22476;SDS011;65006;51.698;-0.292;2023-02-11T00:27:07;16.25;;;7.72;;
22476;SDS011;65006;51.698;-0.292;2023-02-11T00:29:33;16.48;;;7.25;;
22476;SDS011;65006;51.698;-0.292;2023-02-11T00:31:59;17.35;;;7.75;;
22476;SDS011;65006;51.698;-0.292;2023-02-11T00:34:29;19.13;;;7.60;;
22476;SDS011;65006;51.698;-0.292;2023-02-11T00:36:55;19.58;;;8.57;;
22476;SDS011;65006;51.698;-0.292;2023-02-11T00:39:21;18.55;;;8.30;;
22476;SDS011;65006;51.698;-0.292;2023-02-11T00:41:47;15.52;;;8.18;;
22476;SDS011;65006;51.698;-0.292;2023-02-11T00:44:13;16.95;;;7.43;;
22476;SDS011;65006;51.698;-0.292;2023-02-11T00:46:39;17.13;;;7.93;;
22476;SDS011;65006;51.698;-0.292;2023-02-11T00:49:05;15.63;;;7.38;;
22476;SDS011;65006;51.698;-0.292;2023-02-11T00:51:31;15.07;;;7.68;;
22476;SDS011;65006;51.698;-0.292;2023-02-11T00:53:57;17.63;;;7.13;;
22476;SDS011;65006;51.698;-0.292;2023-02-11T00:56:23;15.85;;;7.57;;
22476;SDS011;65006;51.698;-0.292;2023-02-11T00:58:51;18.60;;;7.63;;
22476;SDS011;65006;51.698;-0.292;2023-02-11T01:01:18;15.32;;;7.20;;
22476;SDS011;65006;51.698;-0.292;2023-02-11T01:03:44;14.23;;;6.93;;
22476;SDS011;65006;51.698;-0.292;2023-02-11T01:06:10;16.40;;;7.65;;
22476;SDS011;65006;51.698;-0.292;2023-02-11T01:08:36;19.10;;;7.75;;
22476;SDS011;65006;51.698;-0.292;2023-02-11T01:11:04;15.77;;;7.20;;
22476;SDS011;65006;51.698;-0.292;2023-02-11T01:13:32;20.73;;;9.05;;
22476;SDS011;65006;51.698;-0.292;2023-02-11T01:15:59;18.20;;;7.75;;
22476;SDS011;65006;51.698;-0.292;2023-02-11T01:18:25;21.27;;;6.95;;
22476;SDS011;65006;51.698;-0.292;2023-02-11T01:20:52;16.45;;;6.97;;
22476;SDS011;65006;51.698;-0.292;2023-02-11T01:25:44;15.70;;;7.30;;
22476;SDS011;65006;51.698;-0.292;2023-02-11T01:28:21;20.55;;;7.05;;
22476;SDS011;65006;51.698;-0.292;2023-02-11T01:30:47;16.60;;;7.93;;
22476;SDS011;65006;51.698;-0.292;2023-02-11T01:33:14;16.13;;;6.90;;
22476;SDS011;65006;51.698;-0.292;2023-02-11T01:38:16;16.80;;;7.60;;
22476;SDS011;65006;51.698;-0.292;2023-02-11T01:40:51;14.98;;;7.28;;
22476;SDS011;65006;51.698;-0.292;2023-02-11T01:43:17;16.00;;;6.53;;
22476;SDS011;65006;51.698;-0.292;2023-02-11T01:48:14;26.63;;;8.40;;
22476;SDS011;65006;51.698;-0.292;2023-02-11T01:50:42;19.30;;;7.50;;
22476;SDS011;65006;51.698;-0.292;2023-02-11T01:53:09;23.90;;;8.32;;
22476;SDS011;65006;51.698;-0.292;2023-02-11T01:55:54;21.25;;;8.15;;
22476;SDS011;65006;51.698;-0.292;2023-02-11T01:58:40;19.65;;;7.38;;
22476;SDS011;65006;51.698;-0.292;2023-02-11T02:01:08;18.42;;;7.50;;
22476;SDS011;65006;51.698;-0.292;2023-02-11T02:03:36;22.20;;;7.97;;
22476;SDS011;65006;51.698;-0.292;2023-02-11T02:06:05;20.63;;;7.35;;
22476;SDS011;65006;51.698;-0.292;2023-02-11T02:08:38;20.77;;;7.57;;
22476;SDS011;65006;51.698;-0.292;2023-02-11T02:11:05;18.80;;;7.75;;
22476;SDS011;65006;51.698;-0.292;2023-02-11T02:13:33;16.88;;;7.88;;
22476;SDS011;65006;51.698;-0.292;2023-02-11T02:16:01;16.67;;;7.60;;
22476;SDS011;65006;51.698;-0.292;2023-02-11T02:23:57;18.70;;;7.47;;
22476;SDS011;65006;51.698;-0.292;2023-02-11T02:32:10;22.20;;;8.23;;
22476;SDS011;65006;51.698;-0.292;2023-02-11T02:34:40;20.83;;;8.18;;
22476;SDS011;65006;51.698;-0.292;2023-02-11T02:37:19;20.58;;;7.65;;
22476;SDS011;65006;51.698;-0.292;2023-02-11T02:39:46;20.02;;;6.80;;
22476;SDS011;65006;51.698;-0.292;2023-02-11T02:42:13;17.48;;;7.78;;
22476;SDS011;65006;51.698;-0.292;2023-02-11T02:44:49;17.90;;;7.28;;
22476;SDS011;65006;51.698;-0.292;2023-02-11T02:47:15;19.40;;;8.15;;
22476;SDS011;65006;51.698;-0.292;2023-02-11T02:49:41;17.92;;;7.20;;
22476;SDS011;65006;51.698;-0.292;2023-02-11T03:08:43;17.85;;;7.18;;
22476;SDS011;65006;51.698;-0.292;2023-02-11T03:11:11;16.60;;;7.90;;
22476;SDS011;65006;51.698;-0.292;2023-02-11T03:13:40;20.92;;;7.57;;
22476;SDS011;65006;51.698;-0.292;2023-02-11T03:16:30;20.02;;;7.68;;
22476;SDS011;65006;51.698;-0.292;2023-02-11T03:19:03;21.45;;;8.18;;
22476;SDS011;65006;51.698;-0.292;2023-02-11T03:21:30;16.42;;;6.82;;
22476;SDS011;65006;51.698;-0.292;2023-02-11T03:23:59;20.13;;;8.77;;
22476;SDS011;65006;51.698;-0.292;2023-02-11T03:26:29;22.02;;;7.50;;
22476;SDS011;65006;51.698;-0.292;2023-02-11T03:31:31;23.42;;;8.45;;
22476;SDS011;65006;51.698;-0.292;2023-02-11T03:34:01;26.17;;;9.25;;
22476;SDS011;65006;51.698;-0.292;2023-02-11T03:36:33;19.60;;;8.00;;
22476;SDS011;65006;51.698;-0.292;2023-02-11T03:39:01;19.42;;;8.10;;
22476;SDS011;65006;51.698;-0.292;2023-02-11T03:41:30;19.50;;;8.73;;
22476;SDS011;65006;51.698;-0.292;2023-02-11T03:43:58;22.23;;;8.70;;
22476;SDS011;65006;51.698;-0.292;2023-02-11T03:46:29;20.52;;;8.60;;
22476;SDS011;65006;51.698;-0.292;2023-02-11T03:48:58;20.75;;;8.02;;
22476;SDS011;65006;51.698;-0.292;2023-02-11T03:51:26;20.80;;;7.93;;
22476;SDS011;65006;51.698;-0.292;2023-02-11T03:53:54;22.80;;;9.40;;
22476;SDS011;65006;51.698;-0.292;2023-02-11T03:56:22;17.98;;;7.88;;
22476;SDS011;65006;51.698;-0.292;2023-02-11T03:58:49;21.35;;;8.13;;
22476;SDS011;65006;51.698;-0.292;2023-02-11T04:01:16;20.15;;;8.45;;
22476;SDS011;65006;51.698;-0.292;2023-02-11T04:03:42;20.85;;;8.02;;
22476;SDS011;65006;51.698;-0.292;2023-02-11T04:06:10;21.92;;;8.50;;
22476;SDS011;65006;51.698;-0.292;2023-02-11T04:08:36;19.40;;;8.07;;
22476;SDS011;65006;51.698;-0.292;2023-02-11T04:11:05;20.38;;;7.60;;
22476;SDS011;65006;51.698;-0.292;2023-02-11T04:13:31;24.08;;;8.98;;
22476;SDS011;65006;51.698;-0.292;2023-02-11T04:15:57;17.50;;;8.00;;
22476;SDS011;65006;51.698;-0.292;2023-02-11T04:18:23;21.63;;;8.35;;
22476;SDS011;65006;51.698;-0.292;2023-02-11T04:20:49;23.08;;;8.18;;
22476;SDS011;65006;51.698;-0.292;2023-02-11T04:23:15;20.85;;;8.93;;
22476;SDS011;65006;51.698;-0.292;2023-02-11T04:25:41;20.05;;;8.60;;
22476;SDS011;65006;51.698;-0.292;2023-02-11T04:28:07;21.20;;;8.52;;
22476;SDS011;65006;51.698;-0.292;2023-02-11T04:30:34;19.00;;;8.32;;
22476;SDS011;65006;51.698;-0.292;2023-02-11T04:32:59;20.40;;;8.73;;
22476;SDS011;65006;51.698;-0.292;2023-02-11T04:35:26;20.38;;;8.45;;
22476;SDS011;65006;51.698;-0.292;2023-02-11T04:37:52;19.02;;;8.45;;
22476;SDS011;65006;51.698;-0.292;2023-02-11T04:40:18;21.27;;;8.90;;
22476;SDS011;65006;51.698;-0.292;2023-02-11T04:42:44;22.38;;;9.25;;
22476;SDS011;65006;51.698;-0.292;2023-02-11T04:45:10;21.92;;;8.23;;
22476;SDS011;65006;51.698;-0.292;2023-02-11T04:47:36;25.88;;;8.93;;
22476;SDS011;65006;51.698;-0.292;2023-02-11T04:50:02;20.35;;;8.90;;
22476;SDS011;65006;51.698;-0.292;2023-02-11T04:52:28;17.35;;;8.27;;
22476;SDS011;65006;51.698;-0.292;2023-02-11T04:54:54;27.50;;;9.25;;
22476;SDS011;65006;51.698;-0.292;2023-02-11T04:57:21;21.55;;;8.70;;
22476;SDS011;65006;51.698;-0.292;2023-02-11T04:59:47;20.30;;;8.90;;
22476;SDS011;65006;51.698;-0.292;2023-02-11T05:02:13;19.73;;;7.85;;
22476;SDS011;65006;51.698;-0.292;2023-02-11T05:04:40;21.20;;;8.82;;
22476;SDS011;65006;51.698;-0.292;2023-02-11T05:07:06;15.52;;;7.70;;
22476;SDS011;65006;51.698;-0.292;2023-02-11T05:09:33;18.67;;;7.88;;
22476;SDS011;65006;51.698;-0.292;2023-02-11T05:11:59;21.05;;;8.10;;
22476;SDS011;65006;51.698;-0.292;2023-02-11T05:14:25;18.98;;;7.40;;
22476;SDS011;65006;51.698;-0.292;2023-02-11T05:16:51;21.23;;;9.05;;
22476;SDS011;65006;51.698;-0.292;2023-02-11T05:19:17;25.73;;;8.35;;
22476;SDS011;65006;51.698;-0.292;2023-02-11T05:21:43;21.08;;;7.88;;
22476;SDS011;65006;51.698;-0.292;2023-02-11T05:24:09;19.58;;;7.65;;
22476;SDS011;65006;51.698;-0.292;2023-02-11T05:26:35;21.30;;;8.65;;
22476;SDS011;65006;51.698;-0.292;2023-02-11T05:29:01;15.45;;;6.88;;
22476;SDS011;65006;51.698;-0.292;2023-02-11T05:31:27;19.70;;;8.77;;
22476;SDS011;65006;51.698;-0.292;2023-02-11T05:33:56;20.80;;;8.60;;
22476;SDS011;65006;51.698;-0.292;2023-02-11T05:36:21;23.63;;;8.43;;
22476;SDS011;65006;51.698;-0.292;2023-02-11T05:38:47;20.58;;;9.00;;
22476;SDS011;65006;51.698;-0.292;2023-02-11T05:41:15;17.65;;;7.50;;
22476;SDS011;65006;51.698;-0.292;2023-02-11T05:43:41;21.50;;;8.77;;
22476;SDS011;65006;51.698;-0.292;2023-02-11T05:46:07;19.50;;;7.60;;
22476;SDS011;65006;51.698;-0.292;2023-02-11T05:48:34;18.83;;;7.57;;
22476;SDS011;65006;51.698;-0.292;2023-02-11T05:51:00;18.80;;;7.53;;
22476;SDS011;65006;51.698;-0.292;2023-02-11T05:53:26;20.50;;;7.80;;
22476;SDS011;65006;51.698;-0.292;2023-02-11T05:55:52;14.25;;;7.63;;
22476;SDS011;65006;51.698;-0.292;2023-02-11T05:58:18;18.33;;;7.47;;
22476;SDS011;65006;51.698;-0.292;2023-02-11T06:00:44;14.23;;;7.10;;
22476;SDS011;65006;51.698;-0.292;2023-02-11T06:03:10;14.55;;;6.60;;
22476;SDS011;65006;51.698;-0.292;2023-02-11T06:05:36;16.15;;;6.90;;
22476;SDS011;65006;51.698;-0.292;2023-02-11T06:08:02;18.52;;;7.50;;
22476;SDS011;65006;51.698;-0.292;2023-02-11T06:10:28;17.75;;;7.10;;
22476;SDS011;65006;51.698;-0.292;2023-02-11T06:12:54;20.85;;;7.35;;
22476;SDS011;65006;51.698;-0.292;2023-02-11T06:15:20;20.98;;;8.02;;
22476;SDS011;65006;51.698;-0.292;2023-02-11T06:17:46;16.20;;;7.22;;
22476;SDS011;65006;51.698;-0.292;2023-02-11T06:20:13;18.58;;;7.75;;
22476;SDS011;65006;51.698;-0.292;2023-02-11T06:22:39;20.10;;;6.53;;
22476;SDS011;65006;51.698;-0.292;2023-02-11T06:25:05;14.52;;;6.20;;
22476;SDS011;65006;51.698;-0.292;2023-02-11T06:27:31;21.23;;;7.20;;
22476;SDS011;65006;51.698;-0.292;2023-02-11T06:29:57;13.73;;;6.88;;
22476;SDS011;65006;51.698;-0.292;2023-02-11T06:32:25;20.10;;;6.47;;
22476;SDS011;65006;51.698;-0.292;2023-02-11T06:34:51;17.95;;;6.53;;
22476;SDS011;65006;51.698;-0.292;2023-02-11T06:37:17;15.77;;;6.05;;
22476;SDS011;65006;51.698;-0.292;2023-02-11T06:39:43;16.52;;;6.38;;
22476;SDS011;65006;51.698;-0.292;2023-02-11T06:42:09;15.60;;;6.28;;
22476;SDS011;65006;51.698;-0.292;2023-02-11T06:44:35;18.67;;;6.57;;
22476;SDS011;65006;51.698;-0.292;2023-02-11T06:47:01;14.45;;;6.70;;
22476;SDS011;65006;51.698;-0.292;2023-02-11T06:49:27;14.65;;;5.43;;
22476;SDS011;65006;51.698;-0.292;2023-02-11T06:51:53;16.05;;;5.97;;
22476;SDS011;65006;51.698;-0.292;2023-02-11T06:54:19;11.30;;;6.05;;
22476;SDS011;65006;51.698;-0.292;2023-02-11T06:56:45;13.75;;;6.45;;
22476;SDS011;65006;51.698;-0.292;2023-02-11T06:59:13;14.77;;;6.35;;
22476;SDS011;65006;51.698;-0.292;2023-02-11T07:01:40;17.60;;;6.57;;
22476;SDS011;65006;51.698;-0.292;2023-02-11T07:04:06;18.17;;;7.10;;
22476;SDS011;65006;51.698;-0.292;2023-02-11T07:06:32;16.38;;;6.43;;
22476;SDS011;65006;51.698;-0.292;2023-02-11T07:08:58;13.77;;;6.15;;
22476;SDS011;65006;51.698;-0.292;2023-02-11T07:11:25;14.18;;;5.75;;
22476;SDS011;65006;51.698;-0.292;2023-02-11T07:13:53;11.95;;;5.70;;
22476;SDS011;65006;51.698;-0.292;2023-02-11T07:16:19;11.95;;;5.82;;
22476;SDS011;65006;51.698;-0.292;2023-02-11T07:18:46;15.55;;;6.40;;
22476;SDS011;65006;51.698;-0.292;2023-02-11T07:21:13;16.13;;;5.57;;
22476;SDS011;65006;51.698;-0.292;2023-02-11T07:23:39;9.57;;;5.28;;
22476;SDS011;65006;51.698;-0.292;2023-02-11T07:26:06;14.48;;;5.40;;
22476;SDS011;65006;51.698;-0.292;2023-02-11T07:28:33;13.60;;;5.03;;
22476;SDS011;65006;51.698;-0.292;2023-02-11T07:31:10;14.45;;;6.00;;
22476;SDS011;65006;51.698;-0.292;2023-02-11T07:33:36;14.83;;;5.70;;
22476;SDS011;65006;51.698;-0.292;2023-02-11T07:36:03;13.60;;;5.63;;
22476;SDS011;65006;51.698;-0.292;2023-02-11T07:38:30;14.65;;;5.35;;
22476;SDS011;65006;51.698;-0.292;2023-02-11T07:43:22;15.30;;;4.72;;
22476;SDS011;65006;51.698;-0.292;2023-02-11T07:45:51;10.35;;;5.13;;
22476;SDS011;65006;51.698;-0.292;2023-02-11T07:48:17;11.25;;;4.75;;
22476;SDS011;65006;51.698;-0.292;2023-02-11T07:50:43;12.73;;;5.53;;
22476;SDS011;65006;51.698;-0.292;2023-02-11T07:53:09;13.50;;;4.85;;
22476;SDS011;65006;51.698;-0.292;2023-02-11T07:55:36;11.30;;;4.88;;
22476;SDS011;65006;51.698;-0.292;2023-02-11T07:58:02;8.80;;;4.70;;
22476;SDS011;65006;51.698;-0.292;2023-02-11T08:00:28;12.48;;;5.20;;
22476;SDS011;65006;51.698;-0.292;2023-02-11T08:02:57;13.40;;;4.72;;
22476;SDS011;65006;51.698;-0.292;2023-02-11T08:05:23;13.75;;;5.72;;
22476;SDS011;65006;51.698;-0.292;2023-02-11T08:07:51;13.73;;;5.25;;
22476;SDS011;65006;51.698;-0.292;2023-02-11T08:10:17;11.18;;;4.95;;
22476;SDS011;65006;51.698;-0.292;2023-02-11T08:12:43;12.95;;;5.20;;
22476;SDS011;65006;51.698;-0.292;2023-02-11T08:15:09;16.38;;;5.15;;
22476;SDS011;65006;51.698;-0.292;2023-02-11T08:17:35;17.85;;;4.72;;
22476;SDS011;65006;51.698;-0.292;2023-02-11T08:20:02;11.38;;;5.05;;
22476;SDS011;65006;51.698;-0.292;2023-02-11T08:24:54;11.57;;;4.03;;
22476;SDS011;65006;51.698;-0.292;2023-02-11T08:27:22;13.18;;;4.47;;
22476;SDS011;65006;51.698;-0.292;2023-02-11T08:29:48;8.07;;;4.03;;
22476;SDS011;65006;51.698;-0.292;2023-02-11T08:32:14;9.82;;;4.47;;
22476;SDS011;65006;51.698;-0.292;2023-02-11T08:34:40;12.25;;;3.97;;
22476;SDS011;65006;51.698;-0.292;2023-02-11T08:37:07;11.18;;;5.18;;
22476;SDS011;65006;51.698;-0.292;2023-02-11T08:39:33;12.20;;;3.78;;
22476;SDS011;65006;51.698;-0.292;2023-02-11T08:41:59;8.73;;;4.40;;
22476;SDS011;65006;51.698;-0.292;2023-02-11T08:44:25;8.18;;;4.45;;
22476;SDS011;65006;51.698;-0.292;2023-02-11T08:46:51;11.52;;;4.10;;
22476;SDS011;65006;51.698;-0.292;2023-02-11T08:49:18;10.50;;;4.40;;
22476;SDS011;65006;51.698;-0.292;2023-02-11T08:51:44;9.50;;;4.00;;
22476;SDS011;65006;51.698;-0.292;2023-02-11T08:54:11;8.50;;;4.10;;
22476;SDS011;65006;51.698;-0.292;2023-02-11T08:56:38;7.13;;;3.20;;
22476;SDS011;65006;51.698;-0.292;2023-02-11T08:59:05;12.27;;;3.72;;
22476;SDS011;65006;51.698;-0.292;2023-02-11T09:03:57;6.35;;;3.25;;
22476;SDS011;65006;51.698;-0.292;2023-02-11T09:08:51;6.88;;;3.05;;
22476;SDS011;65006;51.698;-0.292;2023-02-11T09:11:18;14.57;;;3.50;;
22476;SDS011;65006;51.698;-0.292;2023-02-11T09:13:45;7.13;;;3.22;;
22476;SDS011;65006;51.698;-0.292;2023-02-11T09:16:15;11.32;;;3.53;;
22476;SDS011;65006;51.698;-0.292;2023-02-11T09:18:43;11.35;;;3.20;;
22476;SDS011;65006;51.698;-0.292;2023-02-11T09:21:10;8.98;;;3.55;;
22476;SDS011;65006;51.698;-0.292;2023-02-11T09:23:36;12.70;;;3.38;;
22476;SDS011;65006;51.698;-0.292;2023-02-11T09:26:05;9.75;;;3.42;;
22476;SDS011;65006;51.698;-0.292;2023-02-11T09:28:31;7.57;;;2.72;;
22476;SDS011;65006;51.698;-0.292;2023-02-11T09:30:57;8.27;;;3.05;;
22476;SDS011;65006;51.698;-0.292;2023-02-11T09:33:24;8.88;;;3.00;;
22476;SDS011;65006;51.698;-0.292;2023-02-11T09:35:53;7.15;;;2.95;;
22476;SDS011;65006;51.698;-0.292;2023-02-11T09:38:19;5.88;;;2.90;;
22476;SDS011;65006;51.698;-0.292;2023-02-11T09:40:45;7.47;;;2.70;;
22476;SDS011;65006;51.698;-0.292;2023-02-11T09:43:54;6.18;;;2.90;;
22476;SDS011;65006;51.698;-0.292;2023-02-11T09:46:00;4.15;;;2.13;;
22476;SDS011;65006;51.698;-0.292;2023-02-11T09:48:27;5.63;;;2.80;;
22476;SDS011;65006;51.698;-0.292;2023-02-11T09:50:58;4.95;;;2.55;;
22476;SDS011;65006;51.698;-0.292;2023-02-11T09:53:26;3.85;;;2.10;;
22476;SDS011;65006;51.698;-0.292;2023-02-11T09:55:56;5.97;;;2.63;;
22476;SDS011;65006;51.698;-0.292;2023-02-11T09:58:35;6.07;;;2.78;;
22476;SDS011;65006;51.698;-0.292;2023-02-11T10:01:05;4.20;;;2.17;;
22476;SDS011;65006;51.698;-0.292;2023-02-11T10:17:42;7.47;;;2.22;;
22476;SDS011;65006;51.698;-0.292;2023-02-11T10:19:53;6.75;;;2.20;;
22476;SDS011;65006;51.698;-0.292;2023-02-11T10:22:24;10.02;;;2.42;;
22476;SDS011;65006;51.698;-0.292;2023-02-11T10:24:54;8.73;;;2.70;;
22476;SDS011;65006;51.698;-0.292;2023-02-11T10:27:28;4.43;;;2.50;;
22476;SDS011;65006;51.698;-0.292;2023-02-11T10:29:57;4.78;;;2.10;;
22476;SDS011;65006;51.698;-0.292;2023-02-11T10:32:46;7.70;;;1.90;;
22476;SDS011;65006;51.698;-0.292;2023-02-11T10:35:18;5.82;;;1.90;;
22476;SDS011;65006;51.698;-0.292;2023-02-11T10:37:46;2.78;;;1.70;;
22476;SDS011;65006;51.698;-0.292;2023-02-11T10:40:13;4.30;;;2.05;;
22476;SDS011;65006;51.698;-0.292;2023-02-11T10:42:39;5.75;;;1.88;;
22476;SDS011;65006;51.698;-0.292;2023-02-11T10:45:09;7.88;;;2.10;;
22476;SDS011;65006;51.698;-0.292;2023-02-11T10:47:42;4.15;;;1.80;;
22476;SDS011;65006;51.698;-0.292;2023-02-11T10:50:22;5.55;;;1.92;;
22476;SDS011;65006;51.698;-0.292;2023-02-11T10:52:48;3.90;;;2.05;;
22476;SDS011;65006;51.698;-0.292;2023-02-11T10:55:17;4.00;;;2.00;;
22476;SDS011;65006;51.698;-0.292;2023-02-11T11:02:43;4.93;;;1.80;;
22476;SDS011;65006;51.698;-0.292;2023-02-11T11:05:18;6.38;;;1.45;;
22476;SDS011;65006;51.698;-0.292;2023-02-11T11:07:54;6.70;;;1.70;;
22476;SDS011;65006;51.698;-0.292;2023-02-11T11:10:34;4.38;;;1.70;;
22476;SDS011;65006;51.698;-0.292;2023-02-11T11:13:01;3.08;;;1.80;;
22476;SDS011;65006;51.698;-0.292;2023-02-11T11:15:28;5.20;;;1.45;;
22476;SDS011;65006;51.698;-0.292;2023-02-11T11:20:43;8.07;;;1.90;;
22476;SDS011;65006;51.698;-0.292;2023-02-11T11:25:38;5.22;;;2.95;;
22476;SDS011;65006;51.698;-0.292;2023-02-11T11:28:15;7.03;;;2.38;;
22476;SDS011;65006;51.698;-0.292;2023-02-11T11:30:43;5.55;;;1.95;;
22476;SDS011;65006;51.698;-0.292;2023-02-11T11:33:20;5.22;;;1.75;;
22476;SDS011;65006;51.698;-0.292;2023-02-11T11:38:26;4.13;;;2.25;;
22476;SDS011;65006;51.698;-0.292;2023-02-11T11:43:37;2.95;;;1.63;;
22476;SDS011;65006;51.698;-0.292;2023-02-11T11:46:03;4.05;;;1.77;;
22476;SDS011;65006;51.698;-0.292;2023-02-11T11:50:58;7.32;;;2.20;;
22476;SDS011;65006;51.698;-0.292;2023-02-11T11:53:28;5.07;;;2.20;;
22476;SDS011;65006;51.698;-0.292;2023-02-11T11:56:02;8.15;;;2.40;;
22476;SDS011;65006;51.698;-0.292;2023-02-11T11:58:29;6.47;;;2.15;;
22476;SDS011;65006;51.698;-0.292;2023-02-11T12:06:12;3.97;;;2.03;;
22476;SDS011;65006;51.698;-0.292;2023-02-11T12:08:55;7.93;;;2.28;;
22476;SDS011;65006;51.698;-0.292;2023-02-11T12:14:05;2.13;;;1.65;;
22476;SDS011;65006;51.698;-0.292;2023-02-11T12:26:35;2.47;;;1.63;;
22476;SDS011;65006;51.698;-0.292;2023-02-11T12:29:21;6.50;;;1.58;;
22476;SDS011;65006;51.698;-0.292;2023-02-11T12:32:03;7.50;;;2.13;;
22476;SDS011;65006;51.698;-0.292;2023-02-11T12:50:17;9.38;;;2.50;;
22476;SDS011;65006;51.698;-0.292;2023-02-11T12:55:21;2.97;;;1.58;;
22476;SDS011;65006;51.698;-0.292;2023-02-11T12:57:48;34.33;;;2.47;;
22476;SDS011;65006;51.698;-0.292;2023-02-11T13:00:26;5.45;;;1.45;;
22476;SDS011;65006;51.698;-0.292;2023-02-11T13:05:43;30.35;;;4.57;;
22476;SDS011;65006;51.698;-0.292;2023-02-11T13:08:15;3.63;;;1.77;;
22476;SDS011;65006;51.698;-0.292;2023-02-11T13:10:45;1.48;;;0.80;;
22476;SDS011;65006;51.698;-0.292;2023-02-11T13:13:13;13.57;;;1.73;;
22476;SDS011;65006;51.698;-0.292;2023-02-11T13:15:42;3.95;;;1.08;;
22476;SDS011;65006;51.698;-0.292;2023-02-11T13:21:07;4.35;;;1.10;;
22476;SDS011;65006;51.698;-0.292;2023-02-11T13:23:42;10.00;;;1.40;;
22476;SDS011;65006;51.698;-0.292;2023-02-11T13:31:24;5.00;;;1.48;;
22476;SDS011;65006;51.698;-0.292;2023-02-11T13:33:52;6.95;;;1.42;;
22476;SDS011;65006;51.698;-0.292;2023-02-11T13:36:19;8.55;;;1.65;;
22476;SDS011;65006;51.698;-0.292;2023-02-11T13:38:53;8.10;;;1.35;;
22476;SDS011;65006;51.698;-0.292;2023-02-11T13:41:30;2.25;;;1.15;;
22476;SDS011;65006;51.698;-0.292;2023-02-11T13:44:19;1.10;;;0.85;;
22476;SDS011;65006;51.698;-0.292;2023-02-11T13:46:50;5.45;;;1.00;;
22476;SDS011;65006;51.698;-0.292;2023-02-11T13:49:29;2.08;;;1.10;;
22476;SDS011;65006;51.698;-0.292;2023-02-11T13:51:57;4.05;;;0.98;;
22476;SDS011;65006;51.698;-0.292;2023-02-11T13:54:30;3.33;;;1.10;;
22476;SDS011;65006;51.698;-0.292;2023-02-11T13:59:43;4.75;;;1.15;;
22476;SDS011;65006;51.698;-0.292;2023-02-11T14:08:05;3.78;;;1.10;;
22476;SDS011;65006;51.698;-0.292;2023-02-11T14:10:50;10.13;;;1.13;;
22476;SDS011;65006;51.698;-0.292;2023-02-11T14:13:28;10.32;;;1.33;;
22476;SDS011;65006;51.698;-0.292;2023-02-11T14:21:15;6.38;;;0.80;;
22476;SDS011;65006;51.698;-0.292;2023-02-11T14:23:43;7.70;;;0.98;;
22476;SDS011;65006;51.698;-0.292;2023-02-11T14:36:56;4.38;;;1.05;;
22476;SDS011;65006;51.698;-0.292;2023-02-11T14:41:55;3.90;;;1.20;;
22476;SDS011;65006;51.698;-0.292;2023-02-11T14:44:23;4.88;;;0.70;;
22476;SDS011;65006;51.698;-0.292;2023-02-11T14:46:50;2.33;;;0.90;;
22476;SDS011;65006;51.698;-0.292;2023-02-11T14:49:25;8.98;;;1.42;;
22476;SDS011;65006;51.698;-0.292;2023-02-11T14:51:56;1.60;;;1.20;;
22476;SDS011;65006;51.698;-0.292;2023-02-11T14:54:23;3.47;;;1.02;;
22476;SDS011;65006;51.698;-0.292;2023-02-11T14:59:36;1.23;;;0.90;;
22476;SDS011;65006;51.698;-0.292;2023-02-11T15:02:14;4.95;;;0.90;;
22476;SDS011;65006;51.698;-0.292;2023-02-11T15:04:44;5.28;;;0.90;;
22476;SDS011;65006;51.698;-0.292;2023-02-11T15:07:13;2.58;;;1.20;;
22476;SDS011;65006;51.698;-0.292;2023-02-11T15:09:43;2.00;;;0.70;;
22476;SDS011;65006;51.698;-0.292;2023-02-11T15:12:15;3.97;;;1.00;;
22476;SDS011;65006;51.698;-0.292;2023-02-11T15:14:47;1.77;;;0.80;;
22476;SDS011;65006;51.698;-0.292;2023-02-11T15:17:15;2.38;;;0.90;;
22476;SDS011;65006;51.698;-0.292;2023-02-11T15:19:46;1.23;;;0.82;;
22476;SDS011;65006;51.698;-0.292;2023-02-11T15:22:20;3.15;;;0.90;;
22476;SDS011;65006;51.698;-0.292;2023-02-11T15:24:56;4.97;;;1.10;;
22476;SDS011;65006;51.698;-0.292;2023-02-11T15:27:23;5.70;;;1.00;;
22476;SDS011;65006;51.698;-0.292;2023-02-11T15:32:19;4.38;;;1.30;;
22476;SDS011;65006;51.698;-0.292;2023-02-11T15:34:46;7.53;;;1.13;;
22476;SDS011;65006;51.698;-0.292;2023-02-11T15:39:39;2.17;;;1.13;;
22476;SDS011;65006;51.698;-0.292;2023-02-11T15:42:19;4.18;;;1.10;;
22476;SDS011;65006;51.698;-0.292;2023-02-11T15:44:46;1.95;;;0.80;;
22476;SDS011;65006;51.698;-0.292;2023-02-11T15:49:38;1.85;;;1.00;;
22476;SDS011;65006;51.698;-0.292;2023-02-11T15:52:08;6.22;;;1.13;;
22476;SDS011;65006;51.698;-0.292;2023-02-11T15:54:34;5.97;;;0.98;;
22476;SDS011;65006;51.698;-0.292;2023-02-11T15:57:01;2.88;;;0.85;;
22476;SDS011;65006;51.698;-0.292;2023-02-11T15:59:46;2.40;;;0.95;;
22476;SDS011;65006;51.698;-0.292;2023-02-11T16:02:17;2.15;;;0.90;;
22476;SDS011;65006;51.698;-0.292;2023-02-11T16:04:48;5.50;;;1.20;;
22476;SDS011;65006;51.698;-0.292;2023-02-11T16:09:59;6.75;;;1.08;;
22476;SDS011;65006;51.698;-0.292;2023-02-11T16:12:25;2.88;;;0.80;;
22476;SDS011;65006;51.698;-0.292;2023-02-11T16:14:51;4.32;;;1.00;;
22476;SDS011;65006;51.698;-0.292;2023-02-11T16:19:44;1.83;;;0.90;;
22476;SDS011;65006;51.698;-0.292;2023-02-11T16:22:10;2.38;;;0.90;;
22476;SDS011;65006;51.698;-0.292;2023-02-11T16:24:40;7.75;;;0.90;;
22476;SDS011;65006;51.698;-0.292;2023-02-11T16:27:13;3.30;;;0.88;;
22476;SDS011;65006;51.698;-0.292;2023-02-11T16:29:41;2.80;;;0.90;;
22476;SDS011;65006;51.698;-0.292;2023-02-11T16:34:46;3.13;;;0.73;;
22476;SDS011;65006;51.698;-0.292;2023-02-11T16:37:14;5.63;;;1.40;;
22476;SDS011;65006;51.698;-0.292;2023-02-11T16:39:40;5.10;;;1.73;;
22476;SDS011;65006;51.698;-0.292;2023-02-11T16:42:06;2.38;;;1.05;;
22476;SDS011;65006;51.698;-0.292;2023-02-11T16:44:32;5.72;;;2.55;;
22476;SDS011;65006;51.698;-0.292;2023-02-11T16:46:59;1.98;;;1.17;;
22476;SDS011;65006;51.698;-0.292;2023-02-11T16:49:30;4.97;;;1.60;;
22476;SDS011;65006;51.698;-0.292;2023-02-11T16:51:59;5.03;;;1.13;;
22476;SDS011;65006;51.698;-0.292;2023-02-11T16:54:27;3.13;;;1.42;;
22476;SDS011;65006;51.698;-0.292;2023-02-11T16:56:53;3.17;;;1.38;;
22476;SDS011;65006;51.698;-0.292;2023-02-11T16:59:19;6.28;;;1.13;;
22476;SDS011;65006;51.698;-0.292;2023-02-11T17:01:45;4.25;;;1.13;;
22476;SDS011;65006;51.698;-0.292;2023-02-11T17:04:18;3.50;;;1.40;;
22476;SDS011;65006;51.698;-0.292;2023-02-11T17:06:45;4.28;;;1.15;;
22476;SDS011;65006;51.698;-0.292;2023-02-11T17:09:19;1.90;;;0.93;;
22476;SDS011;65006;51.698;-0.292;2023-02-11T17:11:45;2.42;;;1.25;;
22476;SDS011;65006;51.698;-0.292;2023-02-11T17:14:11;1.77;;;0.70;;
22476;SDS011;65006;51.698;-0.292;2023-02-11T17:16:37;10.77;;;1.67;;
22476;SDS011;65006;51.698;-0.292;2023-02-11T17:19:03;3.97;;;1.00;;
22476;SDS011;65006;51.698;-0.292;2023-02-11T17:21:29;1.73;;;1.10;;
22476;SDS011;65006;51.698;-0.292;2023-02-11T17:23:57;7.20;;;1.17;;
22476;SDS011;65006;51.698;-0.292;2023-02-11T17:26:23;7.43;;;1.35;;